Terminal Aerodrome Forecast
Issued by NWS

Home | Current Version | Previous Version | Text Only | Print | Product List | Glossary On
Versions: 1 2 3 4 5 6 7 8 9 10 11 12 13 14 15 16 17 18
000
FTUS46 KHNX 211130
TAFMER
TAF
KMER 211130Z 2112/2212 00000KT 4SM HZ BR BKN150
     FM211400 27001KT 2SM HZ BR BKN150
     FM211700 VRB03KT 5SM HZ SCT200
     FM221100 06004KT 2SM BR SCT250
      AMD NOT SKED=

USA.gov is the U.S. government's official web portal to all federal, state and local government web resources and services.